Time;durP1;ratioP1;P1;durP2;ratioP2;P2;SDS_P1;SDS_P2;PMS_P1;PMS_P2;Temp;Humidity;BMP_temperature;BMP_pressure;BME280_temperature;BME280_humidity;BME280_pressure;Samples;Min_cycle;Max_cycle;Signal;HPM_P1;HPM_P2
2022/04/25 00:00:51;;;;;;;0.93;0.40;;;;;;;12.85;71.65;97520.00;5071094;28;20849;-61
2022/04/25 00:03:37;;;;;;;1.52;0.50;;;;;;;13.04;70.54;97519.03;5072280;28;20097;-61
2022/04/25 00:06:22;;;;;;;0.52;0.40;;;;;;;13.13;67.34;97523.38;5071803;28;20505;-60
2022/04/25 00:09:07;;;;;;;1.15;0.40;;;;;;;12.70;65.82;97528.41;5071027;28;20071;-62
2022/04/25 00:11:52;;;;;;;1.38;0.60;;;;;;;12.56;67.40;97527.13;5084910;28;20067;-61
2022/04/25 00:14:37;;;;;;;0.52;0.30;;;;;;;12.47;70.78;97528.00;5072141;28;20040;-62
2022/04/25 00:17:23;;;;;;;1.17;0.60;;;;;;;12.68;70.00;97538.25;5072038;28;20044;-62
2022/04/25 00:20:08;;;;;;;0.98;0.40;;;;;;;12.88;70.68;97540.72;5071914;28;20537;-62
2022/04/25 00:22:53;;;;;;;1.58;0.60;;;;;;;12.81;69.22;97543.94;5074089;28;20067;-62
2022/04/25 00:25:38;;;;;;;1.95;0.55;;;;;;;12.90;69.71;97536.97;5077541;28;20132;-61
2022/04/25 00:28:23;;;;;;;0.85;0.38;;;;;;;12.96;69.02;97537.34;5072102;28;20064;-63
2022/04/25 00:31:07;;;;;;;1.05;0.40;;;;;;;12.96;68.13;97540.78;5071006;28;20051;-63
2022/04/25 00:33:52;;;;;;;0.50;0.30;;;;;;;12.24;69.21;97542.34;5072009;28;20739;-62
2022/04/25 00:36:37;;;;;;;0.52;0.22;;;;;;;11.61;71.69;97549.03;5070735;28;20242;-62
2022/04/25 00:39:22;;;;;;;2.88;0.63;;;;;;;11.68;71.93;97550.16;5072056;28;20048;-62
2022/04/25 00:42:07;;;;;;;1.10;0.60;;;;;;;11.54;73.22;97554.03;5070414;28;20041;-61
2022/04/25 00:44:51;;;;;;;1.10;0.52;;;;;;;11.57;74.52;97548.53;5070790;28;20072;-62
2022/04/25 00:47:38;;;;;;;0.98;0.43;;;;;;;11.08;75.25;97555.47;5070350;28;20052;-61
2022/04/25 00:50:22;;;;;;;1.15;0.60;;;;;;;10.81;76.74;97549.13;5063638;28;20048;-62
2022/04/25 00:53:08;;;;;;;0.57;0.30;;;;;;;10.72;79.29;97557.81;5096662;28;20079;-62
2022/04/25 00:55:53;;;;;;;2.10;0.88;;;;;;;10.69;78.60;97558.06;5070303;28;20040;-62
2022/04/25 00:58:38;;;;;;;1.02;0.55;;;;;;;10.84;78.93;97554.09;5070215;28;20047;-62
2022/04/25 01:01:25;;;;;;;0.85;0.57;;;;;;;10.96;80.08;97552.16;5056200;28;20056;-62
2022/04/25 01:04:09;;;;;;;1.73;0.90;;;;;;;11.02;78.59;97560.41;5070502;28;20476;-62
2022/04/25 01:06:54;;;;;;;0.45;0.30;;;;;;;11.27;80.25;97559.06;5070397;28;20098;-61
2022/04/25 01:09:39;;;;;;;0.43;0.38;;;;;;;11.51;78.18;97554.31;5071381;28;20114;-62
2022/04/25 01:12:24;;;;;;;0.85;0.50;;;;;;;11.90;76.73;97559.47;5070980;28;20048;-62
2022/04/25 01:15:10;;;;;;;3.25;0.73;;;;;;;11.97;76.00;97558.88;5070339;28;20044;-62
2022/04/25 01:17:56;;;;;;;0.85;0.60;;;;;;;11.53;76.99;97565.50;5069917;28;20049;-62
2022/04/25 01:20:42;;;;;;;0.82;0.45;;;;;;;11.53;78.34;97568.94;5071478;28;20120;-64
2022/04/25 01:29:34;;;;;;;1.65;0.95;;;;;;;10.72;80.42;97556.00;5070130;28;20040;-62
2022/04/25 01:32:24;;;;;;;3.10;1.40;;;;;;;10.39;80.98;97568.44;5055978;28;20127;-61
2022/04/25 01:35:09;;;;;;;1.85;1.20;;;;;;;10.33;82.11;97566.38;5071104;28;20096;-62
2022/04/25 01:37:54;;;;;;;2.03;0.75;;;;;;;10.51;82.45;97569.19;5056140;28;20070;-63
2022/04/25 01:40:39;;;;;;;2.20;1.17;;;;;;;10.57;81.19;97570.44;5098796;28;20075;-62
2022/04/25 01:43:24;;;;;;;2.00;1.05;;;;;;;10.61;80.25;97563.16;5070364;28;20056;-63
2022/04/25 01:46:09;;;;;;;1.95;0.55;;;;;;;10.55;79.28;97564.50;5070944;28;20476;-61
2022/04/25 01:48:53;;;;;;;1.58;0.80;;;;;;;10.23;78.00;97568.94;5080480;28;20048;-61
2022/04/25 01:51:41;;;;;;;2.60;0.70;;;;;;;9.91;78.82;97565.50;5078561;28;20122;-61
2022/04/25 01:54:26;;;;;;;1.05;0.50;;;;;;;9.90;78.21;97569.09;5081991;28;20068;-62
2022/04/25 01:57:11;;;;;;;1.08;0.60;;;;;;;9.86;80.34;97576.38;5076423;28;20044;-62
2022/04/25 01:59:55;;;;;;;0.70;0.43;;;;;;;9.89;79.10;97569.22;5071192;28;20079;-61
2022/04/25 02:02:40;;;;;;;1.00;0.52;;;;;;;9.57;79.73;97565.72;5070255;28;20055;-62
2022/04/25 02:05:25;;;;;;;1.55;0.60;;;;;;;9.80;81.06;97569.03;5057591;28;20056;-62
2022/04/25 02:08:09;;;;;;;0.50;0.40;;;;;;;9.46;79.82;97572.69;5038464;28;20049;-62
2022/04/25 02:13:57;;;;;;;0.80;0.50;;;;;;;9.09;82.03;97565.28;5053773;28;20403;-61
2022/04/25 02:16:42;;;;;;;1.10;0.45;;;;;;;9.30;81.49;97564.47;5054386;28;20396;-61
2022/04/25 02:19:29;;;;;;;1.05;0.50;;;;;;;9.32;81.17;97562.56;5054715;28;20041;-61
2022/04/25 02:22:13;;;;;;;1.05;0.43;;;;;;;9.27;81.53;97564.72;5054322;28;20041;-61
2022/04/25 02:24:58;;;;;;;0.75;0.43;;;;;;;9.06;81.54;97557.66;5065619;28;20045;-61
2022/04/25 02:27:43;;;;;;;1.35;0.55;;;;;;;9.05;82.23;97554.25;5052993;28;20037;-62
2022/04/25 02:30:28;;;;;;;1.42;0.60;;;;;;;9.06;82.01;97555.88;5054043;28;20415;-63
2022/04/25 02:33:13;;;;;;;1.45;0.38;;;;;;;9.08;83.24;97556.59;5053699;28;20045;-63
2022/04/25 02:35:58;;;;;;;0.98;0.60;;;;;;;9.10;84.24;97559.94;5053913;28;20060;-62
2022/04/25 02:38:43;;;;;;;1.50;0.80;;;;;;;9.04;86.28;97560.41;5053597;28;20037;-62
2022/04/25 02:41:29;;;;;;;3.40;0.95;;;;;;;8.90;87.20;97568.53;5053797;28;20069;-62
2022/04/25 02:44:14;;;;;;;1.15;0.70;;;;;;;8.93;88.20;97570.91;5053602;28;20049;-61
2022/04/25 02:46:59;;;;;;;1.65;0.90;;;;;;;9.04;87.53;97575.28;5053804;28;20043;-62
2022/04/25 02:49:43;;;;;;;1.90;0.95;;;;;;;9.12;87.80;97572.88;5066418;28;20037;-62
2022/04/25 02:52:28;;;;;;;1.50;0.80;;;;;;;8.80;88.46;97579.72;5053546;28;20048;-62
2022/04/25 02:55:14;;;;;;;1.25;0.70;;;;;;;8.87;87.29;97574.84;5053338;28;20086;-62
2022/04/25 02:57:59;;;;;;;1.00;0.60;;;;;;;9.10;85.16;97582.59;5080427;28;20045;-62
2022/04/25 03:00:46;;;;;;;0.70;0.60;;;;;;;8.95;85.54;97580.28;5067674;28;20406;-62
2022/04/25 03:03:32;;;;;;;2.00;0.60;;;;;;;9.11;85.52;97589.47;5071846;28;20094;-62
2022/04/25 03:06:17;;;;;;;0.70;0.40;;;;;;;9.29;84.41;97587.16;5057918;28;20036;-62
2022/04/25 03:09:03;;;;;;;2.03;0.55;;;;;;;9.09;85.18;97583.56;5060951;28;20048;-62
2022/04/25 03:11:50;;;;;;;1.35;0.50;;;;;;;8.94;85.90;97588.25;5092222;28;20452;-62
2022/04/25 03:14:35;;;;;;;1.23;0.60;;;;;;;8.98;86.94;97598.31;5052483;28;20491;-62
2022/04/25 03:17:20;;;;;;;1.58;0.68;;;;;;;9.07;85.71;97598.53;5072230;28;20070;-62
2022/04/25 03:20:06;;;;;;;1.45;0.65;;;;;;;8.91;86.40;97594.53;5065623;28;20471;-61
2022/04/25 03:22:50;;;;;;;1.73;0.50;;;;;;;8.74;85.97;97590.66;5052100;28;20044;-61
2022/04/25 03:25:36;;;;;;;1.00;0.60;;;;;;;8.62;87.67;97600.31;5053654;28;20404;-62
2022/04/25 03:28:21;;;;;;;1.20;0.45;;;;;;;8.85;86.57;97601.09;5052830;28;20124;-61
2022/04/25 03:31:07;;;;;;;2.53;0.52;;;;;;;8.77;86.39;97595.66;5053026;28;20041;-62
2022/04/25 03:33:51;;;;;;;1.25;0.40;;;;;;;8.72;86.55;97600.41;5053097;28;20049;-61
2022/04/25 03:36:36;;;;;;;0.90;0.45;;;;;;;8.55;87.56;97607.78;5054309;28;20473;-63
2022/04/25 03:39:20;;;;;;;0.50;0.38;;;;;;;8.54;87.78;97602.66;5053987;28;20045;-62
2022/04/25 03:42:05;;;;;;;1.10;0.40;;;;;;;8.68;86.29;97607.63;5052052;28;20048;-62
2022/04/25 03:44:51;;;;;;;1.05;0.30;;;;;;;8.54;86.84;97600.88;5054751;28;20041;-61
2022/04/25 03:47:36;;;;;;;0.57;0.25;;;;;;;8.63;86.51;97604.59;5054605;28;20053;-63
2022/04/25 03:50:21;;;;;;;0.63;0.30;;;;;;;8.51;87.51;97601.13;5053585;28;20406;-63
2022/04/25 03:53:08;;;;;;;0.68;0.35;;;;;;;8.64;86.78;97601.00;5052828;28;20041;-61
2022/04/25 03:58:56;;;;;;;0.60;0.28;;;;;;;8.43;87.18;97603.50;5054904;28;20633;-62
2022/04/25 04:01:41;;;;;;;0.52;0.20;;;;;;;8.60;85.93;97610.06;5072287;28;20083;-61
2022/04/25 04:04:26;;;;;;;0.47;0.20;;;;;;;8.62;84.88;97608.97;5072645;28;20052;-62
2022/04/25 04:07:11;;;;;;;0.65;0.20;;;;;;;8.66;85.26;97617.41;5072636;28;20056;-61
2022/04/25 04:09:56;;;;;;;0.57;0.10;;;;;;;8.70;84.29;97613.56;5071289;28;20494;-63
2022/04/25 04:12:42;;;;;;;0.20;0.10;;;;;;;8.73;84.14;97618.56;5057368;28;20055;-63
2022/04/25 04:15:27;;;;;;;0.30;0.20;;;;;;;8.90;84.09;97626.00;5068051;28;20040;-61
2022/04/25 04:18:13;;;;;;;0.68;0.15;;;;;;;8.70;84.00;97629.25;5074123;28;20040;-61
2022/04/25 04:20:58;;;;;;;0.30;0.10;;;;;;;8.84;84.09;97622.94;5071902;28;20051;-60
2022/04/25 04:23:43;;;;;;;0.47;0.10;;;;;;;8.87;83.51;97629.69;5071938;28;20072;-59
2022/04/25 04:26:28;;;;;;;0.43;0.15;;;;;;;8.78;83.97;97638.28;5077005;28;20043;-61
2022/04/25 04:29:13;;;;;;;0.50;0.22;;;;;;;8.85;83.94;97642.03;5078399;28;20051;-63
2022/04/25 04:32:06;;;;;;;0.43;0.20;;;;;;;8.85;84.19;97629.81;5056138;28;20052;-62
2022/04/25 04:34:51;;;;;;;0.57;0.20;;;;;;;9.06;83.58;97647.34;5070860;28;20414;-62
2022/04/25 04:37:37;;;;;;;0.40;0.20;;;;;;;9.20;82.58;97648.00;5071586;28;20332;-61
2022/04/25 04:40:30;;;;;;;0.45;0.20;;;;;;;9.17;82.52;97649.06;5071601;28;20559;-61
2022/04/25 04:43:15;;;;;;;0.73;0.20;;;;;;;9.26;81.62;97649.28;5071750;28;20741;-62
2022/04/25 04:46:00;;;;;;;0.30;0.10;;;;;;;9.24;81.51;97650.25;5071691;28;20044;-61
2022/04/25 04:48:45;;;;;;;1.40;0.20;;;;;;;9.08;82.06;97649.81;5070338;28;20356;-62
2022/04/25 04:51:29;;;;;;;0.20;0.20;;;;;;;9.20;81.34;97648.84;5042386;28;20116;-62
2022/04/25 04:54:14;;;;;;;0.30;0.13;;;;;;;9.23;82.06;97658.22;5071584;28;20044;-61
2022/04/25 04:56:59;;;;;;;0.40;0.20;;;;;;;9.29;81.46;97660.34;5070792;28;20072;-61
2022/04/25 04:59:43;;;;;;;0.30;0.20;;;;;;;9.35;81.03;97657.22;5070675;28;20122;-61
2022/04/25 05:02:28;;;;;;;0.63;0.20;;;;;;;9.37;81.16;97667.53;5056571;28;20057;-62
2022/04/25 05:05:13;;;;;;;0.30;0.13;;;;;;;9.45;81.08;97667.75;5051278;28;20044;-60
2022/04/25 05:07:58;;;;;;;0.35;0.10;;;;;;;9.69;80.01;97668.50;5069438;28;20507;-60
2022/04/25 05:10:43;;;;;;;0.68;0.25;;;;;;;10.22;77.90;97667.56;5071396;28;20049;-61
2022/04/25 05:13:27;;;;;;;0.52;0.30;;;;;;;10.39;76.54;97672.34;5070746;28;20045;-61
2022/04/25 05:16:14;;;;;;;0.35;0.17;;;;;;;10.00;78.26;97668.56;5071425;28;20041;-59
2022/04/25 05:19:02;;;;;;;0.52;0.30;;;;;;;10.55;76.98;97671.88;5042632;28;20041;-60
2022/04/25 05:21:47;;;;;;;0.47;0.20;;;;;;;10.66;76.39;97671.78;5070332;28;20036;-62
2022/04/25 05:24:31;;;;;;;0.50;0.20;;;;;;;10.52;75.43;97669.53;5070764;28;20482;-60
2022/04/25 05:27:17;;;;;;;0.63;0.20;;;;;;;10.89;74.51;97679.44;5098695;28;20040;-59
2022/04/25 05:30:02;;;;;;;0.52;0.20;;;;;;;10.68;74.89;97684.75;5056194;28;20109;-61
2022/04/25 05:32:57;;;;;;;0.55;0.32;;;;;;;10.64;75.33;97684.16;5070999;28;20518;-60
2022/04/25 05:35:42;;;;;;;0.25;0.10;;;;;;;10.90;74.50;97683.69;5070021;28;20055;-60
2022/04/25 05:38:27;;;;;;;1.30;0.10;;;;;;;11.36;74.59;97685.03;5070967;28;20041;-60
2022/04/25 05:41:11;;;;;;;0.93;0.30;;;;;;;11.49;73.20;97684.78;5069236;28;20056;-61
2022/04/25 05:43:57;;;;;;;0.50;0.20;;;;;;;10.86;76.40;97691.97;5069801;28;20114;-63
2022/04/25 05:46:42;;;;;;;0.20;0.10;;;;;;;10.39;77.32;97688.88;5059862;28;20105;-62
2022/04/25 05:52:30;;;;;;;0.73;0.30;;;;;;;10.56;78.98;97708.41;5074748;28;20399;-62
2022/04/25 05:55:15;;;;;;;0.40;0.20;;;;;;;10.39;81.04;97699.34;5044042;28;20143;-61
2022/04/25 05:58:02;;;;;;;1.88;0.20;;;;;;;10.59;80.38;97710.75;5053389;28;20179;-60
2022/04/25 06:00:47;;;;;;;1.17;0.30;;;;;;;11.01;78.49;97716.00;5071670;28;20135;-59
2022/04/25 06:03:31;;;;;;;0.30;0.20;;;;;;;10.66;79.92;97710.22;5073439;28;20509;-57
2022/04/25 06:06:21;;;;;;;0.30;0.20;;;;;;;10.20;83.15;97719.22;5075331;28;20428;-57
2022/04/25 06:09:05;;;;;;;0.77;0.38;;;;;;;10.08;84.06;97709.78;5079680;28;20059;-58
2022/04/25 06:11:50;;;;;;;0.73;0.20;;;;;;;10.03;84.68;97711.94;5045876;28;20490;-60
2022/04/25 06:14:34;;;;;;;0.60;0.20;;;;;;;10.15;84.75;97724.00;5067636;28;20171;-59
2022/04/25 06:17:20;;;;;;;0.20;0.20;;;;;;;10.18;85.69;97721.16;5053244;28;20055;-58
2022/04/25 06:20:06;;;;;;;1.05;0.40;;;;;;;10.39;85.96;97727.31;5053352;28;20208;-59
2022/04/25 06:22:56;;;;;;;0.63;0.20;;;;;;;10.21;88.26;97725.28;5052918;28;20052;-59
2022/04/25 06:25:40;;;;;;;0.98;0.40;;;;;;;10.32;88.17;97727.00;5053057;28;20052;-61
2022/04/25 06:28:25;;;;;;;1.50;0.30;;;;;;;10.34;88.54;97725.09;5054283;28;20056;-59
2022/04/25 06:31:12;;;;;;;0.50;0.35;;;;;;;10.27;89.44;97734.41;5038478;28;20045;-57
2022/04/25 06:33:57;;;;;;;0.52;0.40;;;;;;;10.25;89.83;97728.50;5040871;28;20098;-57
2022/04/25 06:36:42;;;;;;;0.57;0.40;;;;;;;10.38;89.56;97739.56;5073681;28;20514;-57
2022/04/25 06:39:26;;;;;;;1.15;0.32;;;;;;;10.56;89.28;97729.34;5052207;28;20041;-58
2022/04/25 06:42:11;;;;;;;1.00;0.40;;;;;;;10.63;88.77;97736.69;5053490;28;20072;-58
2022/04/25 06:44:57;;;;;;;0.60;0.20;;;;;;;10.93;86.97;97735.03;5052547;28;20041;-58
2022/04/25 06:47:42;;;;;;;0.55;0.20;;;;;;;11.27;85.23;97739.94;5053458;28;20059;-59
2022/04/25 06:50:27;;;;;;;0.55;0.30;;;;;;;11.75;81.73;97731.44;5053602;28;20083;-58
2022/04/25 06:53:12;;;;;;;0.63;0.30;;;;;;;12.08;79.71;97739.88;5053694;28;20055;-58
2022/04/25 06:55:57;;;;;;;0.70;0.20;;;;;;;12.24;77.40;97730.59;5051851;28;20037;-59
2022/04/25 06:58:42;;;;;;;0.35;0.20;;;;;;;12.59;77.27;97747.50;5052663;28;20479;-59
2022/04/25 07:01:27;;;;;;;0.40;0.20;;;;;;;12.40;76.42;97743.94;5073134;28;20056;-58
2022/04/25 07:04:11;;;;;;;0.73;0.30;;;;;;;12.29;77.31;97746.75;5071105;28;20045;-58
2022/04/25 07:06:56;;;;;;;0.22;0.20;;;;;;;12.32;77.32;97747.28;5072177;28;20048;-59
2022/04/25 07:09:41;;;;;;;0.20;0.20;;;;;;;12.66;75.08;97745.97;5072197;28;20036;-59
2022/04/25 07:12:27;;;;;;;0.90;0.10;;;;;;;11.98;76.34;97752.16;5073474;28;20194;-59
2022/04/25 07:15:11;;;;;;;0.63;0.13;;;;;;;11.89;76.88;97745.94;5073503;28;20040;-58
2022/04/25 07:17:58;;;;;;;0.30;0.20;;;;;;;12.64;74.29;97742.66;5073180;28;20045;-58
2022/04/25 07:20:42;;;;;;;0.88;0.68;;;;;;;13.12;72.13;97749.66;5073081;28;20488;-59
2022/04/25 07:29:34;;;;;;;0.47;0.28;;;;;;;12.75;71.68;97757.41;5052864;28;20049;-59
2022/04/25 07:32:20;;;;;;;0.68;0.32;;;;;;;12.47;73.07;97751.28;5066104;28;20045;-58
2022/04/25 07:35:07;;;;;;;0.50;0.22;;;;;;;13.11;70.05;97748.81;5064305;28;20049;-58
2022/04/25 07:37:51;;;;;;;0.50;0.30;;;;;;;13.16;70.08;97757.09;5071583;28;20127;-57
2022/04/25 07:40:36;;;;;;;0.80;0.30;;;;;;;13.08;70.54;97762.25;5071454;28;20075;-59
2022/04/25 07:43:21;;;;;;;1.08;0.40;;;;;;;14.34;66.37;97769.53;5071449;28;20044;-60
2022/04/25 07:46:06;;;;;;;0.45;0.30;;;;;;;15.10;64.23;97777.72;5071587;28;20044;-62
2022/04/25 07:48:52;;;;;;;2.53;0.38;;;;;;;15.30;61.57;97777.47;5071476;28;20056;-58
2022/04/25 07:51:41;;;;;;;2.90;0.50;;;;;;;14.71;63.18;97778.16;5072464;28;20063;-58
2022/04/25 07:54:26;;;;;;;0.45;0.30;;;;;;;13.47;66.80;97789.28;5072489;28;20052;-59
2022/04/25 07:57:17;;;;;;;1.15;0.50;;;;;;;12.93;69.94;97793.44;5058208;28;20041;-56
2022/04/25 08:00:06;;;;;;;0.50;0.40;;;;;;;13.32;67.90;97792.44;5070870;28;20493;-59
2022/04/25 08:02:54;;;;;;;0.50;0.40;;;;;;;13.45;67.74;97799.16;5050540;28;20133;-58
2022/04/25 08:05:38;;;;;;;0.57;0.32;;;;;;;14.16;64.97;97800.22;5050815;28;20124;-58
2022/04/25 08:08:23;;;;;;;0.98;0.40;;;;;;;14.20;63.72;97799.91;5053512;28;20041;-59
2022/04/25 08:11:08;;;;;;;0.65;0.43;;;;;;;13.52;66.37;97798.44;5053155;28;20041;-58
2022/04/25 08:20:00;;;;;;;0.95;0.57;;;;;;;13.40;66.53;97810.94;5051949;28;20064;-59
2022/04/25 08:22:46;;;;;;;1.25;0.63;;;;;;;13.15;66.55;97825.59;5050595;28;20048;-59
2022/04/25 08:25:30;;;;;;;0.80;0.60;;;;;;;12.93;68.05;97817.09;5061523;28;20048;-58
2022/04/25 08:28:15;;;;;;;2.70;0.70;;;;;;;12.97;67.81;97826.38;5068887;28;20041;-58
2022/04/25 08:31:00;;;;;;;0.98;0.68;;;;;;;12.75;69.57;97819.63;5055717;28;20411;-59
2022/04/25 08:33:46;;;;;;;1.27;0.60;;;;;;;13.02;68.90;97825.94;5051559;28;20072;-59
2022/04/25 08:36:32;;;;;;;2.55;0.73;;;;;;;13.16;67.39;97822.81;5051565;28;20106;-60
2022/04/25 08:39:16;;;;;;;1.55;0.95;;;;;;;13.04;68.03;97835.31;5051796;28;20480;-62
2022/04/25 08:42:02;;;;;;;1.83;0.90;;;;;;;13.26;67.45;97837.72;5052335;28;20098;-59
2022/04/25 08:44:52;;;;;;;1.05;0.70;;;;;;;12.78;68.54;97833.31;5051237;28;20514;-59
2022/04/25 08:47:44;;;;;;;1.23;0.77;;;;;;;12.59;69.81;97831.56;5079292;28;20045;-60
2022/04/25 08:50:29;;;;;;;1.97;1.00;;;;;;;12.93;68.87;97838.13;5051490;28;20047;-60
2022/04/25 08:53:15;;;;;;;1.45;0.90;;;;;;;13.23;67.39;97833.59;5051762;28;20080;-59
2022/04/25 08:56:03;;;;;;;1.45;0.70;;;;;;;13.34;67.29;97829.09;5052454;28;20055;-60
2022/04/25 08:58:49;;;;;;;1.35;0.90;;;;;;;13.55;66.71;97832.34;5053069;28;20053;-60
2022/04/25 09:01:35;;;;;;;1.05;0.70;;;;;;;13.56;66.83;97827.94;5060859;28;20053;-59
2022/04/25 09:04:20;;;;;;;2.42;0.80;;;;;;;13.21;67.61;97829.44;5051315;28;20098;-58
2022/04/25 09:07:06;;;;;;;2.17;1.02;;;;;;;13.27;67.69;97836.75;5050266;28;20854;-58
2022/04/25 09:09:51;;;;;;;1.65;1.00;;;;;;;13.36;66.45;97835.91;5051463;28;20091;-58
2022/04/25 09:12:37;;;;;;;0.70;0.60;;;;;;;14.03;63.79;97847.16;5051766;28;20049;-59
2022/04/25 09:15:23;;;;;;;1.58;1.00;;;;;;;14.37;62.62;97846.47;5053245;28;20048;-58
2022/04/25 09:18:09;;;;;;;1.10;0.80;;;;;;;14.63;61.61;97836.94;5053266;28;20064;-59
2022/04/25 09:20:56;;;;;;;1.75;1.02;;;;;;;14.51;60.69;97854.78;5063836;28;20060;-58
2022/04/25 09:23:42;;;;;;;1.58;1.00;;;;;;;13.99;62.78;97853.69;5058365;28;20110;-58
2022/04/25 09:26:29;;;;;;;2.22;0.95;;;;;;;14.19;62.36;97856.16;5062736;28;20660;-59
2022/04/25 09:29:13;;;;;;;2.50;1.13;;;;;;;14.01;62.35;97857.00;5054735;28;20506;-59
2022/04/25 09:31:58;;;;;;;1.42;0.88;;;;;;;14.15;62.85;97861.75;5055577;28;20044;-58
2022/04/25 09:35:03;;;;;;;1.50;0.90;;;;;;;14.24;61.81;97864.47;5057548;28;20045;-58
2022/04/25 09:37:48;;;;;;;1.33;1.00;;;;;;;14.04;62.10;97867.22;5058299;28;20118;-59
2022/04/25 09:40:36;;;;;;;1.35;0.88;;;;;;;13.92;61.70;97862.19;5042271;28;20049;-59
2022/04/25 09:43:29;;;;;;;1.13;0.80;;;;;;;14.54;60.35;97881.66;5053825;28;20044;-59
2022/04/25 09:46:15;;;;;;;2.20;0.90;;;;;;;15.06;59.09;97871.34;5054797;28;20045;-58
2022/04/25 09:49:03;;;;;;;1.67;1.10;;;;;;;15.10;57.85;97866.56;5039680;28;20037;-58
2022/04/25 09:52:02;;;;;;;0.88;0.70;;;;;;;14.98;57.32;97869.47;5067325;28;20045;-59
2022/04/25 09:54:47;;;;;;;2.45;0.90;;;;;;;14.64;58.16;97871.03;5054478;28;20041;-59
2022/04/25 09:57:32;;;;;;;1.80;0.90;;;;;;;14.59;58.70;97877.75;5054445;28;20116;-58
2022/04/25 10:00:36;;;;;;;1.70;1.10;;;;;;;14.49;59.74;97883.13;5066739;28;20044;-58
2022/04/25 10:03:34;;;;;;;1.05;0.68;;;;;;;14.01;60.32;97878.06;5074111;28;20040;-59
2022/04/25 10:06:21;;;;;;;1.42;0.82;;;;;;;13.73;61.40;97892.09;5073009;28;20052;-58
2022/04/25 10:09:06;;;;;;;1.40;0.98;;;;;;;13.36;61.69;97888.50;5074250;28;20040;-59
2022/04/25 10:11:57;;;;;;;2.70;1.10;;;;;;;13.57;61.52;97892.72;5073138;28;20048;-59
2022/04/25 10:14:41;;;;;;;1.30;0.90;;;;;;;13.51;61.87;97880.16;5059392;28;20101;-58
2022/04/25 10:17:28;;;;;;;1.33;0.90;;;;;;;13.85;61.21;97884.00;5074221;28;20415;-58
2022/04/25 10:20:14;;;;;;;1.48;0.77;;;;;;;14.23;59.64;97891.78;5074085;28;20475;-58
2022/04/25 10:22:59;;;;;;;1.70;0.90;;;;;;;14.44;59.08;97891.47;5058634;28;20052;-59
2022/04/25 10:25:57;;;;;;;1.30;0.80;;;;;;;15.11;57.15;97882.25;5073889;28;20052;-59
2022/04/25 10:28:52;;;;;;;1.60;1.00;;;;;;;14.76;57.12;97892.72;5073838;28;20510;-59
2022/04/25 10:31:41;;;;;;;1.15;0.80;;;;;;;14.93;56.99;97892.88;5072918;28;20395;-60
2022/04/25 10:34:54;;;;;;;2.17;1.13;;;;;;;14.34;57.80;97896.81;5072770;28;20032;-60
2022/04/25 10:37:41;;;;;;;3.25;1.10;;;;;;;14.74;57.14;97909.66;5101368;28;20402;-59
2022/04/25 10:47:03;;;;;;;1.45;0.90;;;;;;;14.29;58.51;97917.53;5073510;28;20056;-60
2022/04/25 10:49:55;;;;;;;1.48;0.77;;;;;;;14.15;58.12;97913.59;5101168;28;20114;-60
2022/04/25 10:53:00;;;;;;;1.75;1.13;;;;;;;14.37;57.25;97920.25;5101372;28;20040;-60
2022/04/25 10:55:45;;;;;;;2.03;1.23;;;;;;;14.13;59.32;97926.91;5073465;28;20090;-58
2022/04/25 10:58:30;;;;;;;2.75;1.20;;;;;;;14.80;56.13;97934.63;5073702;28;20498;-60
2022/04/25 11:01:31;;;;;;;2.17;0.90;;;;;;;14.37;58.01;97937.84;5072008;28;20396;-59
2022/04/25 11:04:16;;;;;;;1.08;0.68;;;;;;;14.38;57.83;97942.97;5071988;28;20060;-59
2022/04/25 11:07:21;;;;;;;1.60;0.95;;;;;;;14.39;57.79;97952.50;5073263;28;20044;-59
2022/04/25 11:10:07;;;;;;;1.70;0.95;;;;;;;13.76;59.51;97949.69;5071713;28;20045;-60
2022/04/25 11:12:58;;;;;;;1.38;0.95;;;;;;;13.71;60.14;97946.66;5072833;28;20131;-60
2022/04/25 11:15:49;;;;;;;1.42;0.88;;;;;;;13.67;60.44;97950.56;5071545;28;20040;-59
2022/04/25 11:18:37;;;;;;;1.15;0.60;;;;;;;14.46;58.86;97946.66;5071876;28;20120;-60
2022/04/25 11:21:32;;;;;;;1.30;0.90;;;;;;;14.96;56.97;97949.72;5071574;28;20402;-59
2022/04/25 11:24:35;;;;;;;1.65;1.00;;;;;;;14.98;55.77;97947.78;5086080;28;20052;-60
2022/04/25 11:27:21;;;;;;;1.80;0.93;;;;;;;15.20;55.43;97957.00;5072893;28;20041;-64
2022/04/25 11:30:15;;;;;;;1.85;1.00;;;;;;;14.87;55.28;97964.66;5071615;28;20051;-64
2022/04/25 11:33:11;;;;;;;1.50;1.35;;;;;;;14.64;55.16;97958.00;5091280;28;20060;-62
2022/04/25 11:36:00;;;;;;;2.47;1.30;;;;;;;14.23;56.01;97947.91;5043049;28;20049;-61
2022/04/25 11:41:51;;;;;;;1.48;1.00;;;;;;;14.07;55.99;97972.25;5070020;28;20068;-65
2022/04/25 11:44:38;;;;;;;1.90;1.10;;;;;;;13.96;55.73;97957.50;5071673;28;20049;-64
2022/04/25 11:47:23;;;;;;;2.03;0.88;;;;;;;13.74;56.07;97982.41;5071348;28;20040;-68
2022/04/25 11:50:14;;;;;;;1.80;1.20;;;;;;;13.59;56.08;97980.25;5072317;28;20352;-76
2022/04/25 11:52:59;;;;;;;2.00;1.20;;;;;;;13.59;56.62;97982.88;5071324;28;20053;-67
2022/04/25 11:55:44;;;;;;;2.00;0.80;;;;;;;13.76;56.43;97983.91;5071185;28;20056;-70
2022/04/25 11:58:29;;;;;;;2.35;1.30;;;;;;;14.57;54.15;97987.78;5070906;28;20040;-70
2022/04/25 12:01:40;;;;;;;2.72;1.17;;;;;;;14.59;54.16;97983.19;5036843;28;20056;-66
2022/04/25 12:04:44;;;;;;;2.05;1.25;;;;;;;14.64;54.41;97986.16;5052060;28;20109;-64
2022/04/25 12:07:29;;;;;;;3.08;1.20;;;;;;;15.84;51.86;97987.53;5050977;28;20064;-61
2022/04/25 12:16:21;;;;;;;2.00;1.20;;;;;;;18.95;43.17;97977.91;5050719;28;20131;-61
2022/04/25 12:19:07;;;;;;;1.60;1.00;;;;;;;18.51;42.97;97976.75;5050901;28;20077;-60
2022/04/25 12:22:03;;;;;;;2.53;1.50;;;;;;;17.53;44.37;97972.50;5051773;28;20037;-61
2022/04/25 12:24:47;;;;;;;2.65;1.70;;;;;;;16.78;45.84;97982.34;5054285;28;20048;-59
2022/04/25 12:27:32;;;;;;;2.92;1.65;;;;;;;16.09;47.73;97971.78;5071275;28;20380;-60
2022/04/25 12:30:17;;;;;;;1.95;1.40;;;;;;;15.82;48.56;97978.94;5070418;28;20090;-60
2022/04/25 12:33:09;;;;;;;4.05;1.67;;;;;;;15.39;50.65;97990.25;5071770;28;20041;-60
2022/04/25 12:36:27;;;;;;;;;;;;;;;14.99;50.09;97992.47;5072105;28;20051;-62
2022/04/25 12:39:14;;;;;;;2.53;1.52;;;;;;;15.09;50.95;97994.16;5039946;28;19931;-61
2022/04/25 12:41:59;;;;;;;2.53;1.60;;;;;;;15.13;51.10;98006.91;5070155;28;20052;-59
2022/04/25 12:44:57;;;;;;;2.38;1.55;;;;;;;14.88;53.11;98005.88;5071496;28;20119;-65
2022/04/25 12:47:45;;;;;;;4.55;1.90;;;;;;;14.54;55.20;98002.91;5071325;28;20041;-69
2022/04/25 12:50:45;;;;;;;2.38;1.45;;;;;;;15.35;54.57;98023.22;5071546;28;20052;-71
2022/04/25 12:53:40;;;;;;;2.25;1.17;;;;;;;15.31;55.94;98015.78;5071153;28;20067;-71
2022/04/25 12:56:30;;;;;;;1.70;1.23;;;;;;;14.97;57.42;98012.88;5070139;28;20605;-70
2022/04/25 12:59:29;;;;;;;1.73;1.30;;;;;;;14.75;58.26;98016.78;5070864;28;20048;-65
2022/04/25 13:02:17;;;;;;;2.53;1.10;;;;;;;14.57;57.69;98025.50;5071377;28;20067;-65
2022/04/25 13:05:07;;;;;;;1.65;1.17;;;;;;;14.73;55.75;98005.53;5070078;28;20059;-66
2022/04/25 13:07:52;;;;;;;2.47;1.30;;;;;;;14.57;56.46;98011.50;5070959;28;20045;-65
2022/04/25 13:10:38;;;;;;;1.92;1.10;;;;;;;14.49;57.78;98022.78;5052453;28;20069;-63
2022/04/25 13:13:22;;;;;;;2.03;1.10;;;;;;;14.57;57.20;98022.03;5050994;28;20159;-65
2022/04/25 13:16:07;;;;;;;4.15;1.30;;;;;;;14.58;57.41;98026.31;5049813;28;20045;-65
2022/04/25 13:18:53;;;;;;;1.98;1.20;;;;;;;15.56;54.25;98032.59;5087042;28;20097;-65
2022/04/25 13:21:41;;;;;;;1.65;1.10;;;;;;;15.30;54.25;98030.78;5070970;28;20044;-66
2022/04/25 13:24:25;;;;;;;4.05;1.20;;;;;;;14.94;55.52;98036.06;5055976;28;20514;-65
2022/04/25 13:27:10;;;;;;;2.47;1.15;;;;;;;14.80;55.79;98026.91;5069874;28;20040;-65
2022/04/25 13:29:55;;;;;;;1.63;1.20;;;;;;;14.82;55.83;98041.56;5071047;28;20052;-65
2022/04/25 13:32:44;;;;;;;2.58;1.27;;;;;;;14.41;56.89;98050.69;5070429;28;20126;-65
2022/04/25 13:35:29;;;;;;;2.40;1.63;;;;;;;14.10;58.25;98048.34;5069695;28;20054;-66
2022/04/25 13:38:14;;;;;;;3.80;1.67;;;;;;;13.94;58.10;98048.16;5069697;28;20090;-65
2022/04/25 13:41:00;;;;;;;2.92;1.70;;;;;;;13.69;58.99;98040.75;5055741;28;20401;-66
2022/04/25 13:43:49;;;;;;;2.55;1.67;;;;;;;13.92;58.76;98043.03;5055811;28;20092;-67
2022/04/25 13:46:34;;;;;;;4.18;1.77;;;;;;;13.88;58.66;98055.66;5069621;28;20119;-66
2022/04/25 13:49:20;;;;;;;2.97;1.98;;;;;;;13.80;58.28;98050.28;5071249;28;20399;-66
2022/04/25 13:52:05;;;;;;;3.67;1.80;;;;;;;13.77;58.55;98054.00;5070182;28;20055;-65